Terminal Aerodrome Forecast
Issued by NWS

Home | Current Version | Previous Version | Text Only | Print | Product List | Glossary On
Versions: 1 2 3 4 5 6 7 8 9 10 11 12 13 14
000
FTUS42 KTBW 291733
TAFLAL
TAF
KLAL 291733Z 2918/3018 12006KT P6SM VCTS SCT030CB BKN250
     FM292000 30008KT P6SM VCTS SCT040CB BKN120
     FM300000 06004KT P6SM SCT040 SCT120 BKN250
     FM300400 06003KT P6SM FEW025 BKN250
     FM301600 12008KT 6SM SHRA VCTS SCT018CB BKN040=

USA.gov is the U.S. government's official web portal to all federal, state and local government web resources and services.